sensor_id;sensor_type;location;lat;lon;timestamp;P1;durP1;ratioP1;P2;durP2;ratioP2
24084;SDS011;12268;52.110;5.548;2023-03-01T00:01:59;18.30;;;11.48;;
24084;SDS011;12268;52.110;5.548;2023-03-01T00:04:25;16.08;;;10.65;;
24084;SDS011;12268;52.110;5.548;2023-03-01T00:06:50;17.25;;;11.35;;
24084;SDS011;12268;52.110;5.548;2023-03-01T00:09:16;21.40;;;10.60;;
24084;SDS011;12268;52.110;5.548;2023-03-01T00:11:42;15.25;;;10.18;;
24084;SDS011;12268;52.110;5.548;2023-03-01T00:14:09;19.25;;;11.25;;
24084;SDS011;12268;52.110;5.548;2023-03-01T00:16:44;16.95;;;10.38;;
24084;SDS011;12268;52.110;5.548;2023-03-01T00:19:15;13.95;;;9.90;;
24084;SDS011;12268;52.110;5.548;2023-03-01T00:21:41;15.90;;;10.68;;
24084;SDS011;12268;52.110;5.548;2023-03-01T00:24:08;18.30;;;10.50;;
24084;SDS011;12268;52.110;5.548;2023-03-01T00:26:34;19.10;;;10.93;;
24084;SDS011;12268;52.110;5.548;2023-03-01T00:28:59;14.82;;;10.30;;
24084;SDS011;12268;52.110;5.548;2023-03-01T00:31:26;15.57;;;10.48;;
24084;SDS011;12268;52.110;5.548;2023-03-01T00:33:58;17.77;;;10.95;;
24084;SDS011;12268;52.110;5.548;2023-03-01T00:36:26;18.02;;;11.13;;
24084;SDS011;12268;52.110;5.548;2023-03-01T00:38:54;20.23;;;10.40;;
24084;SDS011;12268;52.110;5.548;2023-03-01T00:41:20;20.20;;;11.00;;
24084;SDS011;12268;52.110;5.548;2023-03-01T00:43:47;15.82;;;10.57;;
24084;SDS011;12268;52.110;5.548;2023-03-01T00:46:16;16.75;;;10.85;;
24084;SDS011;12268;52.110;5.548;2023-03-01T00:48:43;17.30;;;11.05;;
24084;SDS011;12268;52.110;5.548;2023-03-01T00:53:42;19.30;;;11.68;;
24084;SDS011;12268;52.110;5.548;2023-03-01T00:56:09;20.23;;;10.60;;
24084;SDS011;12268;52.110;5.548;2023-03-01T00:58:36;21.70;;;11.60;;
24084;SDS011;12268;52.110;5.548;2023-03-01T01:01:12;17.65;;;11.30;;
24084;SDS011;12268;52.110;5.548;2023-03-01T01:03:44;16.67;;;10.95;;
24084;SDS011;12268;52.110;5.548;2023-03-01T01:06:14;20.15;;;11.60;;
24084;SDS011;12268;52.110;5.548;2023-03-01T01:08:43;19.40;;;11.90;;
24084;SDS011;12268;52.110;5.548;2023-03-01T01:11:10;21.73;;;12.70;;
24084;SDS011;12268;52.110;5.548;2023-03-01T01:13:36;17.58;;;11.70;;
24084;SDS011;12268;52.110;5.548;2023-03-01T01:16:02;23.15;;;12.18;;
24084;SDS011;12268;52.110;5.548;2023-03-01T01:18:28;20.88;;;11.43;;
24084;SDS011;12268;52.110;5.548;2023-03-01T01:31:15;16.23;;;11.13;;
24084;SDS011;12268;52.110;5.548;2023-03-01T01:33:42;18.48;;;11.48;;
24084;SDS011;12268;52.110;5.548;2023-03-01T01:36:08;18.80;;;11.30;;
24084;SDS011;12268;52.110;5.548;2023-03-01T01:38:34;16.98;;;11.30;;
24084;SDS011;12268;52.110;5.548;2023-03-01T01:41:01;16.73;;;10.70;;
24084;SDS011;12268;52.110;5.548;2023-03-01T01:43:28;16.13;;;10.70;;
24084;SDS011;12268;52.110;5.548;2023-03-01T01:45:59;15.50;;;10.65;;
24084;SDS011;12268;52.110;5.548;2023-03-01T01:48:32;13.55;;;10.20;;
24084;SDS011;12268;52.110;5.548;2023-03-01T01:53:40;17.08;;;10.98;;
24084;SDS011;12268;52.110;5.548;2023-03-01T01:56:09;18.00;;;11.00;;
24084;SDS011;12268;52.110;5.548;2023-03-01T01:58:36;19.42;;;10.63;;
24084;SDS011;12268;52.110;5.548;2023-03-01T02:01:03;28.17;;;11.15;;
24084;SDS011;12268;52.110;5.548;2023-03-01T02:03:30;19.05;;;10.98;;
24084;SDS011;12268;52.110;5.548;2023-03-01T02:08:40;18.33;;;11.02;;
24084;SDS011;12268;52.110;5.548;2023-03-01T02:11:07;17.95;;;11.32;;
24084;SDS011;12268;52.110;5.548;2023-03-01T02:13:35;18.58;;;11.05;;
24084;SDS011;12268;52.110;5.548;2023-03-01T02:16:04;18.42;;;11.00;;
24084;SDS011;12268;52.110;5.548;2023-03-01T02:18:34;19.52;;;12.10;;
24084;SDS011;12268;52.110;5.548;2023-03-01T02:23:25;20.13;;;11.73;;
24084;SDS011;12268;52.110;5.548;2023-03-01T02:28:26;18.00;;;11.88;;
24084;SDS011;12268;52.110;5.548;2023-03-01T02:30:58;17.75;;;11.70;;
24084;SDS011;12268;52.110;5.548;2023-03-01T02:33:42;19.52;;;11.60;;
24084;SDS011;12268;52.110;5.548;2023-03-01T02:36:11;20.42;;;11.50;;
24084;SDS011;12268;52.110;5.548;2023-03-01T02:38:42;20.20;;;12.18;;
24084;SDS011;12268;52.110;5.548;2023-03-01T02:41:08;21.27;;;12.45;;
24084;SDS011;12268;52.110;5.548;2023-03-01T02:43:38;20.30;;;11.95;;
24084;SDS011;12268;52.110;5.548;2023-03-01T02:46:08;20.65;;;11.57;;
24084;SDS011;12268;52.110;5.548;2023-03-01T02:48:40;20.27;;;11.77;;
24084;SDS011;12268;52.110;5.548;2023-03-01T02:51:14;17.15;;;11.82;;
24084;SDS011;12268;52.110;5.548;2023-03-01T02:53:59;17.45;;;11.82;;
24084;SDS011;12268;52.110;5.548;2023-03-01T02:56:45;18.67;;;11.80;;
24084;SDS011;12268;52.110;5.548;2023-03-01T02:59:13;22.00;;;12.43;;
24084;SDS011;12268;52.110;5.548;2023-03-01T03:01:41;19.55;;;11.50;;
24084;SDS011;12268;52.110;5.548;2023-03-01T03:04:07;17.85;;;11.70;;
24084;SDS011;12268;52.110;5.548;2023-03-01T03:06:36;20.02;;;11.45;;
24084;SDS011;12268;52.110;5.548;2023-03-01T03:09:02;17.20;;;11.57;;
24084;SDS011;12268;52.110;5.548;2023-03-01T03:11:29;18.08;;;11.85;;
24084;SDS011;12268;52.110;5.548;2023-03-01T03:13:55;19.17;;;11.35;;
24084;SDS011;12268;52.110;5.548;2023-03-01T03:16:22;18.30;;;11.45;;
24084;SDS011;12268;52.110;5.548;2023-03-01T03:18:49;16.65;;;11.10;;
24084;SDS011;12268;52.110;5.548;2023-03-01T03:21:15;18.52;;;11.75;;
24084;SDS011;12268;52.110;5.548;2023-03-01T03:23:41;21.55;;;12.13;;
24084;SDS011;12268;52.110;5.548;2023-03-01T03:26:07;19.08;;;11.98;;
24084;SDS011;12268;52.110;5.548;2023-03-01T03:28:33;17.67;;;12.07;;
24084;SDS011;12268;52.110;5.548;2023-03-01T03:30:59;19.13;;;12.35;;
24084;SDS011;12268;52.110;5.548;2023-03-01T03:33:29;17.67;;;11.65;;
24084;SDS011;12268;52.110;5.548;2023-03-01T03:35:57;18.23;;;12.93;;
24084;SDS011;12268;52.110;5.548;2023-03-01T03:38:23;21.88;;;12.55;;
24084;SDS011;12268;52.110;5.548;2023-03-01T03:40:50;20.25;;;12.23;;
24084;SDS011;12268;52.110;5.548;2023-03-01T03:43:18;24.40;;;12.50;;
24084;SDS011;12268;52.110;5.548;2023-03-01T03:45:45;21.92;;;11.93;;
24084;SDS011;12268;52.110;5.548;2023-03-01T03:48:12;18.70;;;11.40;;
24084;SDS011;12268;52.110;5.548;2023-03-01T03:50:39;18.65;;;12.65;;
24084;SDS011;12268;52.110;5.548;2023-03-01T03:53:06;19.15;;;11.93;;
24084;SDS011;12268;52.110;5.548;2023-03-01T03:55:34;24.33;;;12.15;;
24084;SDS011;12268;52.110;5.548;2023-03-01T03:58:01;18.95;;;12.70;;
24084;SDS011;12268;52.110;5.548;2023-03-01T04:00:32;20.88;;;13.10;;
24084;SDS011;12268;52.110;5.548;2023-03-01T04:03:02;19.55;;;13.00;;
24084;SDS011;12268;52.110;5.548;2023-03-01T04:05:28;18.60;;;12.90;;
24084;SDS011;12268;52.110;5.548;2023-03-01T04:07:54;18.20;;;12.60;;
24084;SDS011;12268;52.110;5.548;2023-03-01T04:10:26;21.35;;;13.00;;
24084;SDS011;12268;52.110;5.548;2023-03-01T04:12:55;22.17;;;12.98;;
24084;SDS011;12268;52.110;5.548;2023-03-01T04:15:22;25.58;;;13.50;;
24084;SDS011;12268;52.110;5.548;2023-03-01T04:17:49;24.30;;;13.15;;
24084;SDS011;12268;52.110;5.548;2023-03-01T04:20:17;20.60;;;13.07;;
24084;SDS011;12268;52.110;5.548;2023-03-01T04:22:50;19.42;;;13.15;;
24084;SDS011;12268;52.110;5.548;2023-03-01T04:25:17;18.02;;;12.77;;
24084;SDS011;12268;52.110;5.548;2023-03-01T04:27:43;22.42;;;13.77;;
24084;SDS011;12268;52.110;5.548;2023-03-01T04:30:08;25.27;;;13.95;;
24084;SDS011;12268;52.110;5.548;2023-03-01T04:32:35;21.67;;;13.38;;
24084;SDS011;12268;52.110;5.548;2023-03-01T04:35:00;22.13;;;13.95;;
24084;SDS011;12268;52.110;5.548;2023-03-01T04:37:26;18.83;;;13.07;;
24084;SDS011;12268;52.110;5.548;2023-03-01T04:39:52;21.40;;;13.65;;
24084;SDS011;12268;52.110;5.548;2023-03-01T04:42:17;20.23;;;14.30;;
24084;SDS011;12268;52.110;5.548;2023-03-01T04:44:44;18.27;;;12.63;;
24084;SDS011;12268;52.110;5.548;2023-03-01T04:47:09;21.90;;;14.07;;
24084;SDS011;12268;52.110;5.548;2023-03-01T04:49:35;22.67;;;13.18;;
24084;SDS011;12268;52.110;5.548;2023-03-01T04:52:01;22.02;;;13.18;;
24084;SDS011;12268;52.110;5.548;2023-03-01T04:54:29;22.05;;;12.57;;
24084;SDS011;12268;52.110;5.548;2023-03-01T04:56:56;22.10;;;13.63;;
24084;SDS011;12268;52.110;5.548;2023-03-01T04:59:22;20.20;;;12.38;;
24084;SDS011;12268;52.110;5.548;2023-03-01T05:01:49;26.20;;;13.05;;
24084;SDS011;12268;52.110;5.548;2023-03-01T05:04:15;22.98;;;13.57;;
24084;SDS011;12268;52.110;5.548;2023-03-01T05:06:41;20.45;;;12.60;;
24084;SDS011;12268;52.110;5.548;2023-03-01T05:09:06;23.02;;;12.65;;
24084;SDS011;12268;52.110;5.548;2023-03-01T05:11:32;20.95;;;13.55;;
24084;SDS011;12268;52.110;5.548;2023-03-01T05:14:01;20.35;;;12.57;;
24084;SDS011;12268;52.110;5.548;2023-03-01T05:16:27;20.23;;;12.68;;
24084;SDS011;12268;52.110;5.548;2023-03-01T05:18:52;20.00;;;12.63;;
24084;SDS011;12268;52.110;5.548;2023-03-01T05:21:20;23.27;;;11.93;;
24084;SDS011;12268;52.110;5.548;2023-03-01T05:23:45;18.70;;;12.25;;
24084;SDS011;12268;52.110;5.548;2023-03-01T05:26:12;21.67;;;12.52;;
24084;SDS011;12268;52.110;5.548;2023-03-01T05:28:38;22.95;;;12.80;;
24084;SDS011;12268;52.110;5.548;2023-03-01T05:31:04;19.15;;;11.57;;
24084;SDS011;12268;52.110;5.548;2023-03-01T05:33:34;22.20;;;12.30;;
24084;SDS011;12268;52.110;5.548;2023-03-01T05:36:04;22.63;;;13.43;;
24084;SDS011;12268;52.110;5.548;2023-03-01T05:38:32;21.45;;;12.80;;
24084;SDS011;12268;52.110;5.548;2023-03-01T05:40:58;22.90;;;12.73;;
24084;SDS011;12268;52.110;5.548;2023-03-01T05:43:23;30.30;;;13.82;;
24084;SDS011;12268;52.110;5.548;2023-03-01T05:45:49;22.10;;;12.50;;
24084;SDS011;12268;52.110;5.548;2023-03-01T05:48:14;23.23;;;13.27;;
24084;SDS011;12268;52.110;5.548;2023-03-01T05:50:41;24.08;;;14.27;;
24084;SDS011;12268;52.110;5.548;2023-03-01T05:53:25;22.50;;;13.88;;
24084;SDS011;12268;52.110;5.548;2023-03-01T05:55:51;24.23;;;13.43;;
24084;SDS011;12268;52.110;5.548;2023-03-01T05:58:18;24.33;;;14.35;;
24084;SDS011;12268;52.110;5.548;2023-03-01T06:00:45;25.42;;;14.05;;
24084;SDS011;12268;52.110;5.548;2023-03-01T06:03:13;20.17;;;13.30;;
24084;SDS011;12268;52.110;5.548;2023-03-01T06:05:40;18.45;;;11.73;;
24084;SDS011;12268;52.110;5.548;2023-03-01T06:08:06;23.15;;;12.93;;
24084;SDS011;12268;52.110;5.548;2023-03-01T06:10:32;25.02;;;13.75;;
24084;SDS011;12268;52.110;5.548;2023-03-01T06:12:57;21.90;;;13.60;;
24084;SDS011;12268;52.110;5.548;2023-03-01T06:15:24;21.95;;;13.77;;
24084;SDS011;12268;52.110;5.548;2023-03-01T06:17:50;25.92;;;14.35;;
24084;SDS011;12268;52.110;5.548;2023-03-01T06:20:17;23.48;;;13.88;;
24084;SDS011;12268;52.110;5.548;2023-03-01T06:22:45;26.23;;;13.90;;
24084;SDS011;12268;52.110;5.548;2023-03-01T06:25:12;22.70;;;14.32;;
24084;SDS011;12268;52.110;5.548;2023-03-01T06:27:38;27.30;;;14.75;;
24084;SDS011;12268;52.110;5.548;2023-03-01T06:30:05;32.83;;;14.80;;
24084;SDS011;12268;52.110;5.548;2023-03-01T06:32:31;22.13;;;13.75;;
24084;SDS011;12268;52.110;5.548;2023-03-01T06:34:57;22.90;;;14.52;;
24084;SDS011;12268;52.110;5.548;2023-03-01T06:37:23;24.77;;;14.80;;
24084;SDS011;12268;52.110;5.548;2023-03-01T06:39:49;28.83;;;14.43;;
24084;SDS011;12268;52.110;5.548;2023-03-01T06:42:15;30.50;;;14.63;;
24084;SDS011;12268;52.110;5.548;2023-03-01T06:44:41;24.73;;;14.55;;
24084;SDS011;12268;52.110;5.548;2023-03-01T06:47:06;33.33;;;14.95;;
24084;SDS011;12268;52.110;5.548;2023-03-01T06:49:32;31.65;;;14.20;;
24084;SDS011;12268;52.110;5.548;2023-03-01T06:51:58;23.05;;;13.73;;
24084;SDS011;12268;52.110;5.548;2023-03-01T06:54:23;26.13;;;14.23;;
24084;SDS011;12268;52.110;5.548;2023-03-01T06:56:49;21.85;;;13.75;;
24084;SDS011;12268;52.110;5.548;2023-03-01T06:59:15;25.00;;;14.57;;
24084;SDS011;12268;52.110;5.548;2023-03-01T07:01:41;27.08;;;14.63;;
24084;SDS011;12268;52.110;5.548;2023-03-01T07:04:07;23.38;;;14.32;;
24084;SDS011;12268;52.110;5.548;2023-03-01T07:06:32;20.80;;;13.25;;
24084;SDS011;12268;52.110;5.548;2023-03-01T07:08:58;27.35;;;14.15;;
24084;SDS011;12268;52.110;5.548;2023-03-01T07:11:24;22.13;;;13.63;;
24084;SDS011;12268;52.110;5.548;2023-03-01T07:13:49;23.63;;;13.85;;
24084;SDS011;12268;52.110;5.548;2023-03-01T07:16:15;21.70;;;14.63;;
24084;SDS011;12268;52.110;5.548;2023-03-01T07:18:40;25.67;;;14.13;;
24084;SDS011;12268;52.110;5.548;2023-03-01T07:21:07;25.30;;;14.63;;
24084;SDS011;12268;52.110;5.548;2023-03-01T07:23:33;24.45;;;14.88;;
24084;SDS011;12268;52.110;5.548;2023-03-01T07:25:59;26.73;;;14.85;;
24084;SDS011;12268;52.110;5.548;2023-03-01T07:28:25;24.67;;;15.32;;
24084;SDS011;12268;52.110;5.548;2023-03-01T07:30:51;26.85;;;15.60;;
24084;SDS011;12268;52.110;5.548;2023-03-01T07:33:17;28.42;;;15.25;;
24084;SDS011;12268;52.110;5.548;2023-03-01T07:35:43;26.42;;;14.55;;
24084;SDS011;12268;52.110;5.548;2023-03-01T07:38:08;24.40;;;15.02;;
24084;SDS011;12268;52.110;5.548;2023-03-01T07:40:34;27.45;;;14.63;;
24084;SDS011;12268;52.110;5.548;2023-03-01T07:43:00;25.25;;;14.85;;
24084;SDS011;12268;52.110;5.548;2023-03-01T07:45:26;24.13;;;14.60;;
24084;SDS011;12268;52.110;5.548;2023-03-01T07:47:52;24.83;;;14.18;;
24084;SDS011;12268;52.110;5.548;2023-03-01T07:50:18;22.90;;;14.13;;
24084;SDS011;12268;52.110;5.548;2023-03-01T07:52:45;21.42;;;13.38;;
24084;SDS011;12268;52.110;5.548;2023-03-01T07:55:11;19.92;;;12.05;;
24084;SDS011;12268;52.110;5.548;2023-03-01T07:57:37;21.27;;;12.30;;
24084;SDS011;12268;52.110;5.548;2023-03-01T08:00:03;23.70;;;12.48;;
24084;SDS011;12268;52.110;5.548;2023-03-01T08:02:29;19.10;;;11.38;;
24084;SDS011;12268;52.110;5.548;2023-03-01T08:04:56;22.02;;;12.55;;
24084;SDS011;12268;52.110;5.548;2023-03-01T08:07:21;21.23;;;12.18;;
24084;SDS011;12268;52.110;5.548;2023-03-01T08:09:47;21.50;;;11.07;;
24084;SDS011;12268;52.110;5.548;2023-03-01T08:12:12;19.63;;;10.88;;
24084;SDS011;12268;52.110;5.548;2023-03-01T08:14:38;18.95;;;11.40;;
24084;SDS011;12268;52.110;5.548;2023-03-01T08:17:04;18.35;;;11.23;;
24084;SDS011;12268;52.110;5.548;2023-03-01T08:19:29;19.63;;;10.13;;
24084;SDS011;12268;52.110;5.548;2023-03-01T08:21:55;16.10;;;9.32;;
24084;SDS011;12268;52.110;5.548;2023-03-01T08:24:23;16.27;;;9.70;;
24084;SDS011;12268;52.110;5.548;2023-03-01T08:26:49;16.63;;;10.48;;
24084;SDS011;12268;52.110;5.548;2023-03-01T08:29:14;17.45;;;10.00;;
24084;SDS011;12268;52.110;5.548;2023-03-01T08:31:40;233.35;;;49.33;;
24084;SDS011;12268;52.110;5.548;2023-03-01T08:34:07;48.13;;;15.45;;
24084;SDS011;12268;52.110;5.548;2023-03-01T08:36:38;203.85;;;43.00;;
24084;SDS011;12268;52.110;5.548;2023-03-01T08:39:05;22.98;;;11.05;;
24084;SDS011;12268;52.110;5.548;2023-03-01T08:41:32;13.23;;;9.65;;
24084;SDS011;12268;52.110;5.548;2023-03-01T08:43:57;15.23;;;9.52;;
24084;SDS011;12268;52.110;5.548;2023-03-01T08:46:26;13.10;;;9.57;;
24084;SDS011;12268;52.110;5.548;2023-03-01T08:48:53;13.25;;;9.23;;
24084;SDS011;12268;52.110;5.548;2023-03-01T08:51:19;16.25;;;9.35;;
24084;SDS011;12268;52.110;5.548;2023-03-01T08:53:46;17.38;;;8.52;;
24084;SDS011;12268;52.110;5.548;2023-03-01T08:56:12;12.63;;;8.27;;
24084;SDS011;12268;52.110;5.548;2023-03-01T08:58:38;14.60;;;8.57;;
24084;SDS011;12268;52.110;5.548;2023-03-01T09:01:08;14.98;;;7.72;;
24084;SDS011;12268;52.110;5.548;2023-03-01T09:03:35;12.25;;;8.10;;
24084;SDS011;12268;52.110;5.548;2023-03-01T09:06:01;15.38;;;8.32;;
24084;SDS011;12268;52.110;5.548;2023-03-01T09:08:28;13.85;;;8.27;;
24084;SDS011;12268;52.110;5.548;2023-03-01T09:10:54;164.75;;;40.88;;
24084;SDS011;12268;52.110;5.548;2023-03-01T09:13:20;19.00;;;10.82;;
24084;SDS011;12268;52.110;5.548;2023-03-01T09:15:48;34.55;;;16.73;;
24084;SDS011;12268;52.110;5.548;2023-03-01T09:18:14;16.98;;;8.88;;
24084;SDS011;12268;52.110;5.548;2023-03-01T09:20:39;15.35;;;9.00;;
24084;SDS011;12268;52.110;5.548;2023-03-01T09:23:05;15.25;;;8.90;;
24084;SDS011;12268;52.110;5.548;2023-03-01T09:25:30;14.20;;;8.40;;
24084;SDS011;12268;52.110;5.548;2023-03-01T09:27:56;11.93;;;7.65;;
24084;SDS011;12268;52.110;5.548;2023-03-01T09:30:21;12.45;;;7.80;;
24084;SDS011;12268;52.110;5.548;2023-03-01T09:32:47;11.43;;;8.15;;
24084;SDS011;12268;52.110;5.548;2023-03-01T09:35:13;10.98;;;8.30;;
24084;SDS011;12268;52.110;5.548;2023-03-01T09:37:38;12.77;;;7.72;;
24084;SDS011;12268;52.110;5.548;2023-03-01T09:40:29;13.13;;;8.57;;
24084;SDS011;12268;52.110;5.548;2023-03-01T09:42:55;9.30;;;6.57;;
24084;SDS011;12268;52.110;5.548;2023-03-01T09:45:40;10.25;;;6.93;;
24084;SDS011;12268;52.110;5.548;2023-03-01T09:48:13;12.20;;;5.95;;
24084;SDS011;12268;52.110;5.548;2023-03-01T09:50:43;10.45;;;6.15;;
24084;SDS011;12268;52.110;5.548;2023-03-01T09:53:18;8.02;;;5.72;;
24084;SDS011;12268;52.110;5.548;2023-03-01T09:56:00;10.00;;;6.15;;
24084;SDS011;12268;52.110;5.548;2023-03-01T10:06:43;8.77;;;6.15;;
24084;SDS011;12268;52.110;5.548;2023-03-01T10:09:16;8.18;;;5.60;;
24084;SDS011;12268;52.110;5.548;2023-03-01T10:11:51;8.25;;;5.70;;
24084;SDS011;12268;52.110;5.548;2023-03-01T10:17:02;7.70;;;4.35;;
24084;SDS011;12268;52.110;5.548;2023-03-01T10:19:31;5.65;;;4.45;;
24084;SDS011;12268;52.110;5.548;2023-03-01T10:24:53;8.82;;;4.50;;
24084;SDS011;12268;52.110;5.548;2023-03-01T10:27:24;6.57;;;4.03;;
24084;SDS011;12268;52.110;5.548;2023-03-01T10:30:05;8.35;;;4.50;;
24084;SDS011;12268;52.110;5.548;2023-03-01T10:32:37;7.72;;;4.22;;
24084;SDS011;12268;52.110;5.548;2023-03-01T10:35:19;8.25;;;4.53;;
24084;SDS011;12268;52.110;5.548;2023-03-01T10:43:43;7.13;;;4.65;;
24084;SDS011;12268;52.110;5.548;2023-03-01T10:46:24;9.27;;;4.30;;
24084;SDS011;12268;52.110;5.548;2023-03-01T10:49:34;6.75;;;4.45;;
24084;SDS011;12268;52.110;5.548;2023-03-01T10:51:52;5.53;;;3.70;;
24084;SDS011;12268;52.110;5.548;2023-03-01T10:57:22;5.80;;;3.95;;
24084;SDS011;12268;52.110;5.548;2023-03-01T10:59:51;5.88;;;3.92;;
24084;SDS011;12268;52.110;5.548;2023-03-01T11:02:29;7.53;;;4.40;;
24084;SDS011;12268;52.110;5.548;2023-03-01T11:05:13;5.57;;;4.25;;
24084;SDS011;12268;52.110;5.548;2023-03-01T11:07:49;8.20;;;4.25;;
24084;SDS011;12268;52.110;5.548;2023-03-01T11:10:27;7.30;;;4.13;;
24084;SDS011;12268;52.110;5.548;2023-03-01T11:13:17;8.65;;;4.53;;
24084;SDS011;12268;52.110;5.548;2023-03-01T11:15:58;6.32;;;4.38;;
24084;SDS011;12268;52.110;5.548;2023-03-01T11:18:25;7.90;;;4.93;;
24084;SDS011;12268;52.110;5.548;2023-03-01T11:20:54;7.38;;;4.63;;
24084;SDS011;12268;52.110;5.548;2023-03-01T11:23:20;8.05;;;4.50;;
24084;SDS011;12268;52.110;5.548;2023-03-01T11:25:57;6.88;;;4.40;;
24084;SDS011;12268;52.110;5.548;2023-03-01T11:28:27;9.20;;;4.35;;
24084;SDS011;12268;52.110;5.548;2023-03-01T11:36:16;8.05;;;4.60;;
24084;SDS011;12268;52.110;5.548;2023-03-01T11:38:57;7.45;;;4.10;;
24084;SDS011;12268;52.110;5.548;2023-03-01T11:41:35;7.40;;;4.50;;
24084;SDS011;12268;52.110;5.548;2023-03-01T11:44:23;8.20;;;4.70;;
24084;SDS011;12268;52.110;5.548;2023-03-01T11:55:17;6.00;;;4.05;;
24084;SDS011;12268;52.110;5.548;2023-03-01T12:01:08;6.65;;;4.35;;
24084;SDS011;12268;52.110;5.548;2023-03-01T12:06:24;6.18;;;4.30;;
24084;SDS011;12268;52.110;5.548;2023-03-01T12:14:40;7.78;;;4.50;;
24084;SDS011;12268;52.110;5.548;2023-03-01T12:20:07;7.60;;;4.32;;
24084;SDS011;12268;52.110;5.548;2023-03-01T12:25:33;7.90;;;4.50;;
24084;SDS011;12268;52.110;5.548;2023-03-01T12:38:48;7.75;;;4.63;;
24084;SDS011;12268;52.110;5.548;2023-03-01T12:46:31;8.18;;;4.95;;
24084;SDS011;12268;52.110;5.548;2023-03-01T12:49:08;6.30;;;4.47;;
24084;SDS011;12268;52.110;5.548;2023-03-01T12:51:38;7.97;;;5.03;;
24084;SDS011;12268;52.110;5.548;2023-03-01T12:54:15;8.30;;;5.07;;
24084;SDS011;12268;52.110;5.548;2023-03-01T12:56:47;7.00;;;4.85;;
24084;SDS011;12268;52.110;5.548;2023-03-01T13:04:27;5.88;;;4.50;;
24084;SDS011;12268;52.110;5.548;2023-03-01T13:15:27;9.18;;;4.53;;
24084;SDS011;12268;52.110;5.548;2023-03-01T13:20:31;7.00;;;4.32;;
24084;SDS011;12268;52.110;5.548;2023-03-01T13:26:06;6.53;;;4.35;;
24084;SDS011;12268;52.110;5.548;2023-03-01T13:28:40;6.95;;;4.30;;
24084;SDS011;12268;52.110;5.548;2023-03-01T13:31:10;7.57;;;4.40;;
24084;SDS011;12268;52.110;5.548;2023-03-01T13:33:47;5.70;;;4.20;;
24084;SDS011;12268;52.110;5.548;2023-03-01T13:49:42;6.68;;;4.10;;
24084;SDS011;12268;52.110;5.548;2023-03-01T14:03:32;8.60;;;4.22;;
24084;SDS011;12268;52.110;5.548;2023-03-01T14:06:05;6.68;;;4.47;;
24084;SDS011;12268;52.110;5.548;2023-03-01T14:08:34;10.98;;;5.55;;
24084;SDS011;12268;52.110;5.548;2023-03-01T14:16:35;7.30;;;4.47;;
24084;SDS011;12268;52.110;5.548;2023-03-01T14:19:21;7.88;;;4.55;;
24084;SDS011;12268;52.110;5.548;2023-03-01T14:24:48;6.60;;;4.28;;
24084;SDS011;12268;52.110;5.548;2023-03-01T14:27:16;8.25;;;4.50;;
24084;SDS011;12268;52.110;5.548;2023-03-01T14:29:43;7.55;;;4.68;;
24084;SDS011;12268;52.110;5.548;2023-03-01T14:34:49;7.05;;;4.20;;
24084;SDS011;12268;52.110;5.548;2023-03-01T14:39:43;6.47;;;4.00;;
24084;SDS011;12268;52.110;5.548;2023-03-01T14:42:09;6.38;;;4.28;;
24084;SDS011;12268;52.110;5.548;2023-03-01T14:44:34;6.95;;;4.18;;
24084;SDS011;12268;52.110;5.548;2023-03-01T14:47:02;7.97;;;4.53;;
24084;SDS011;12268;52.110;5.548;2023-03-01T14:49:29;7.57;;;4.50;;
24084;SDS011;12268;52.110;5.548;2023-03-01T14:52:00;6.63;;;4.50;;
24084;SDS011;12268;52.110;5.548;2023-03-01T14:54:37;9.35;;;4.35;;
24084;SDS011;12268;52.110;5.548;2023-03-01T14:57:17;8.35;;;4.60;;
24084;SDS011;12268;52.110;5.548;2023-03-01T14:59:52;6.97;;;4.43;;
24084;SDS011;12268;52.110;5.548;2023-03-01T15:02:20;7.75;;;4.57;;
24084;SDS011;12268;52.110;5.548;2023-03-01T15:04:49;5.68;;;4.07;;
24084;SDS011;12268;52.110;5.548;2023-03-01T15:07:17;10.75;;;4.50;;
24084;SDS011;12268;52.110;5.548;2023-03-01T15:09:44;6.53;;;4.22;;
24084;SDS011;12268;52.110;5.548;2023-03-01T15:14:54;11.07;;;5.13;;
24084;SDS011;12268;52.110;5.548;2023-03-01T15:17:31;7.43;;;4.55;;
24084;SDS011;12268;52.110;5.548;2023-03-01T15:19:59;8.45;;;4.97;;
24084;SDS011;12268;52.110;5.548;2023-03-01T15:22:27;8.07;;;4.63;;
24084;SDS011;12268;52.110;5.548;2023-03-01T15:24:53;8.27;;;4.82;;
24084;SDS011;12268;52.110;5.548;2023-03-01T15:27:20;6.80;;;4.55;;
24084;SDS011;12268;52.110;5.548;2023-03-01T15:29:49;7.82;;;4.40;;
24084;SDS011;12268;52.110;5.548;2023-03-01T15:34:52;8.80;;;4.53;;
24084;SDS011;12268;52.110;5.548;2023-03-01T15:42:56;8.77;;;4.22;;
24084;SDS011;12268;52.110;5.548;2023-03-01T15:45:31;7.03;;;4.28;;
24084;SDS011;12268;52.110;5.548;2023-03-01T15:48:04;7.35;;;4.05;;
24084;SDS011;12268;52.110;5.548;2023-03-01T15:50:40;6.60;;;4.20;;
24084;SDS011;12268;52.110;5.548;2023-03-01T15:53:11;8.23;;;4.47;;
24084;SDS011;12268;52.110;5.548;2023-03-01T15:55:39;8.88;;;4.45;;
24084;SDS011;12268;52.110;5.548;2023-03-01T15:58:06;9.63;;;4.15;;
24084;SDS011;12268;52.110;5.548;2023-03-01T16:00:37;7.50;;;4.55;;
24084;SDS011;12268;52.110;5.548;2023-03-01T16:03:03;8.13;;;4.75;;
24084;SDS011;12268;52.110;5.548;2023-03-01T16:05:33;8.50;;;4.88;;
24084;SDS011;12268;52.110;5.548;2023-03-01T16:08:00;8.88;;;4.47;;
24084;SDS011;12268;52.110;5.548;2023-03-01T16:10:26;6.25;;;4.35;;
24084;SDS011;12268;52.110;5.548;2023-03-01T16:12:52;8.80;;;4.50;;
24084;SDS011;12268;52.110;5.548;2023-03-01T16:15:36;8.43;;;4.20;;
24084;SDS011;12268;52.110;5.548;2023-03-01T16:18:03;7.18;;;4.13;;
24084;SDS011;12268;52.110;5.548;2023-03-01T16:20:30;10.18;;;4.93;;
24084;SDS011;12268;52.110;5.548;2023-03-01T16:23:04;7.97;;;4.60;;
24084;SDS011;12268;52.110;5.548;2023-03-01T16:25:31;7.90;;;4.45;;
24084;SDS011;12268;52.110;5.548;2023-03-01T16:27:57;6.25;;;4.20;;
24084;SDS011;12268;52.110;5.548;2023-03-01T16:30:26;7.95;;;4.70;;
24084;SDS011;12268;52.110;5.548;2023-03-01T16:32:52;7.07;;;4.45;;
24084;SDS011;12268;52.110;5.548;2023-03-01T16:35:19;6.63;;;4.63;;
24084;SDS011;12268;52.110;5.548;2023-03-01T16:37:45;8.73;;;5.25;;
24084;SDS011;12268;52.110;5.548;2023-03-01T16:40:19;7.72;;;4.97;;
24084;SDS011;12268;52.110;5.548;2023-03-01T16:42:51;9.30;;;5.05;;
24084;SDS011;12268;52.110;5.548;2023-03-01T16:45:17;6.30;;;4.82;;
24084;SDS011;12268;52.110;5.548;2023-03-01T16:47:43;7.38;;;4.80;;
24084;SDS011;12268;52.110;5.548;2023-03-01T16:50:09;9.13;;;5.35;;
24084;SDS011;12268;52.110;5.548;2023-03-01T16:52:35;11.52;;;5.35;;
24084;SDS011;12268;52.110;5.548;2023-03-01T16:55:01;10.10;;;4.60;;
24084;SDS011;12268;52.110;5.548;2023-03-01T16:57:28;8.73;;;5.30;;
24084;SDS011;12268;52.110;5.548;2023-03-01T16:59:55;8.60;;;5.47;;
24084;SDS011;12268;52.110;5.548;2023-03-01T17:02:20;8.60;;;5.72;;
24084;SDS011;12268;52.110;5.548;2023-03-01T17:04:52;8.95;;;5.25;;
24084;SDS011;12268;52.110;5.548;2023-03-01T17:07:19;15.27;;;7.35;;
24084;SDS011;12268;52.110;5.548;2023-03-01T17:09:44;11.13;;;6.50;;
24084;SDS011;12268;52.110;5.548;2023-03-01T17:12:13;11.43;;;5.82;;
24084;SDS011;12268;52.110;5.548;2023-03-01T17:14:39;9.60;;;5.90;;
24084;SDS011;12268;52.110;5.548;2023-03-01T17:17:06;14.02;;;5.80;;
24084;SDS011;12268;52.110;5.548;2023-03-01T17:19:33;10.52;;;6.22;;
24084;SDS011;12268;52.110;5.548;2023-03-01T17:22:00;12.38;;;6.30;;